sensor_id;sensor_type;location;lat;lon;timestamp;P1;durP1;ratioP1;P2;durP2;ratioP2
18322;SDS011;9287;49.456;11.064;2024-03-23T00:55:38;6.80;;;5.57;;
18322;SDS011;9287;49.456;11.064;2024-03-23T00:58:05;6.90;;;5.70;;
18322;SDS011;9287;49.456;11.064;2024-03-23T01:00:31;6.00;;;5.40;;
18322;SDS011;9287;49.456;11.064;2024-03-23T01:02:57;8.07;;;6.20;;
18322;SDS011;9287;49.456;11.064;2024-03-23T01:05:24;9.63;;;7.47;;
18322;SDS011;9287;49.456;11.064;2024-03-23T01:07:50;11.63;;;8.07;;
18322;SDS011;9287;49.456;11.064;2024-03-23T01:10:16;11.63;;;6.87;;
18322;SDS011;9287;49.456;11.064;2024-03-23T01:12:45;9.57;;;7.43;;
18322;SDS011;9287;49.456;11.064;2024-03-23T01:15:11;9.37;;;6.47;;
18322;SDS011;9287;49.456;11.064;2024-03-23T01:17:38;10.53;;;6.57;;
18322;SDS011;9287;49.456;11.064;2024-03-23T01:20:04;10.33;;;7.40;;
18322;SDS011;9287;49.456;11.064;2024-03-23T01:22:31;7.63;;;5.77;;
18322;SDS011;9287;49.456;11.064;2024-03-23T01:24:58;6.83;;;5.77;;
18322;SDS011;9287;49.456;11.064;2024-03-23T01:27:25;8.50;;;6.60;;
18322;SDS011;9287;49.456;11.064;2024-03-23T01:29:52;8.83;;;6.50;;
18322;SDS011;9287;49.456;11.064;2024-03-23T01:32:20;8.80;;;7.37;;
18322;SDS011;9287;49.456;11.064;2024-03-23T01:34:47;8.63;;;7.07;;
18322;SDS011;9287;49.456;11.064;2024-03-23T01:37:13;8.63;;;6.77;;
18322;SDS011;9287;49.456;11.064;2024-03-23T01:39:39;7.53;;;6.73;;
18322;SDS011;9287;49.456;11.064;2024-03-23T01:42:06;7.43;;;6.63;;
18322;SDS011;9287;49.456;11.064;2024-03-23T01:44:32;10.77;;;7.47;;
18322;SDS011;9287;49.456;11.064;2024-03-23T01:47:00;8.73;;;6.83;;
18322;SDS011;9287;49.456;11.064;2024-03-23T01:49:26;8.00;;;6.30;;
18322;SDS011;9287;49.456;11.064;2024-03-23T01:51:53;6.63;;;6.03;;
18322;SDS011;9287;49.456;11.064;2024-03-23T01:54:19;7.40;;;6.23;;
18322;SDS011;9287;49.456;11.064;2024-03-23T01:56:46;7.77;;;6.20;;
18322;SDS011;9287;49.456;11.064;2024-03-23T01:59:13;9.07;;;6.33;;
18322;SDS011;9287;49.456;11.064;2024-03-23T02:01:39;8.23;;;6.07;;
18322;SDS011;9287;49.456;11.064;2024-03-23T02:04:08;7.70;;;6.23;;
18322;SDS011;9287;49.456;11.064;2024-03-23T02:06:35;8.87;;;6.30;;
18322;SDS011;9287;49.456;11.064;2024-03-23T02:09:01;8.90;;;6.47;;
18322;SDS011;9287;49.456;11.064;2024-03-23T02:11:29;7.50;;;5.93;;
18322;SDS011;9287;49.456;11.064;2024-03-23T02:13:54;8.73;;;6.00;;
18322;SDS011;9287;49.456;11.064;2024-03-23T02:16:21;9.10;;;7.00;;
18322;SDS011;9287;49.456;11.064;2024-03-23T02:18:47;7.90;;;5.83;;
18322;SDS011;9287;49.456;11.064;2024-03-23T02:21:16;7.43;;;5.70;;
18322;SDS011;9287;49.456;11.064;2024-03-23T02:23:44;5.83;;;5.27;;
18322;SDS011;9287;49.456;11.064;2024-03-23T02:26:10;7.37;;;6.13;;
18322;SDS011;9287;49.456;11.064;2024-03-23T02:28:36;8.83;;;5.97;;
18322;SDS011;9287;49.456;11.064;2024-03-23T02:31:03;6.03;;;5.27;;
18322;SDS011;9287;49.456;11.064;2024-03-23T02:33:29;6.37;;;5.77;;
18322;SDS011;9287;49.456;11.064;2024-03-23T02:35:57;7.30;;;5.67;;
18322;SDS011;9287;49.456;11.064;2024-03-23T02:38:23;6.70;;;6.00;;
18322;SDS011;9287;49.456;11.064;2024-03-23T02:40:51;7.30;;;5.90;;
18322;SDS011;9287;49.456;11.064;2024-03-23T02:43:17;6.43;;;5.50;;
18322;SDS011;9287;49.456;11.064;2024-03-23T02:45:44;6.10;;;5.50;;
18322;SDS011;9287;49.456;11.064;2024-03-23T02:48:09;7.97;;;5.40;;
18322;SDS011;9287;49.456;11.064;2024-03-23T02:50:36;8.07;;;5.30;;
18322;SDS011;9287;49.456;11.064;2024-03-23T02:53:02;6.80;;;5.10;;
18322;SDS011;9287;49.456;11.064;2024-03-23T02:55:29;7.23;;;5.90;;
18322;SDS011;9287;49.456;11.064;2024-03-23T02:57:56;7.57;;;5.80;;
18322;SDS011;9287;49.456;11.064;2024-03-23T03:00:27;6.97;;;6.10;;
18322;SDS011;9287;49.456;11.064;2024-03-23T03:02:53;6.97;;;5.10;;
18322;SDS011;9287;49.456;11.064;2024-03-23T03:05:20;6.07;;;5.47;;
18322;SDS011;9287;49.456;11.064;2024-03-23T03:07:46;7.60;;;5.40;;
18322;SDS011;9287;49.456;11.064;2024-03-23T03:10:13;6.63;;;6.03;;
18322;SDS011;9287;49.456;11.064;2024-03-23T03:12:39;8.37;;;5.87;;
18322;SDS011;9287;49.456;11.064;2024-03-23T03:15:08;7.77;;;5.20;;
18322;SDS011;9287;49.456;11.064;2024-03-23T03:17:34;5.63;;;5.13;;
18322;SDS011;9287;49.456;11.064;2024-03-23T03:20:01;6.73;;;5.63;;
18322;SDS011;9287;49.456;11.064;2024-03-23T03:22:28;7.70;;;5.30;;
18322;SDS011;9287;49.456;11.064;2024-03-23T03:24:54;5.77;;;5.13;;
18322;SDS011;9287;49.456;11.064;2024-03-23T03:27:20;7.20;;;6.17;;
18322;SDS011;9287;49.456;11.064;2024-03-23T03:29:48;7.77;;;6.10;;
18322;SDS011;9287;49.456;11.064;2024-03-23T03:32:15;6.77;;;6.10;;
18322;SDS011;9287;49.456;11.064;2024-03-23T03:34:42;9.03;;;5.73;;
18322;SDS011;9287;49.456;11.064;2024-03-23T03:37:08;7.23;;;6.47;;
18322;SDS011;9287;49.456;11.064;2024-03-23T03:39:34;6.87;;;6.17;;
18322;SDS011;9287;49.456;11.064;2024-03-23T03:42:00;7.40;;;5.70;;
18322;SDS011;9287;49.456;11.064;2024-03-23T03:44:31;7.77;;;6.00;;
18322;SDS011;9287;49.456;11.064;2024-03-23T03:46:57;8.67;;;6.20;;
18322;SDS011;9287;49.456;11.064;2024-03-23T03:49:26;9.23;;;6.80;;
18322;SDS011;9287;49.456;11.064;2024-03-23T03:51:51;7.60;;;6.23;;
18322;SDS011;9287;49.456;11.064;2024-03-23T03:54:18;7.07;;;6.37;;
18322;SDS011;9287;49.456;11.064;2024-03-23T03:56:44;7.47;;;6.23;;
18322;SDS011;9287;49.456;11.064;2024-03-23T03:59:11;8.40;;;6.17;;
18322;SDS011;9287;49.456;11.064;2024-03-23T04:01:37;6.67;;;5.97;;
18322;SDS011;9287;49.456;11.064;2024-03-23T04:04:04;7.50;;;6.30;;
18322;SDS011;9287;49.456;11.064;2024-03-23T04:06:31;6.23;;;5.70;;
18322;SDS011;9287;49.456;11.064;2024-03-23T04:08:58;7.77;;;6.17;;
18322;SDS011;9287;49.456;11.064;2024-03-23T04:11:24;10.07;;;7.00;;
18322;SDS011;9287;49.456;11.064;2024-03-23T04:13:51;9.23;;;6.97;;
18322;SDS011;9287;49.456;11.064;2024-03-23T04:16:24;8.07;;;7.00;;
18322;SDS011;9287;49.456;11.064;2024-03-23T04:18:52;9.93;;;6.83;;
18322;SDS011;9287;49.456;11.064;2024-03-23T04:21:18;8.43;;;7.50;;
18322;SDS011;9287;49.456;11.064;2024-03-23T04:23:46;7.67;;;6.80;;
18322;SDS011;9287;49.456;11.064;2024-03-23T04:26:12;8.73;;;7.13;;
18322;SDS011;9287;49.456;11.064;2024-03-23T04:28:39;8.13;;;7.33;;
18322;SDS011;9287;49.456;11.064;2024-03-23T04:31:05;8.67;;;7.60;;
18322;SDS011;9287;49.456;11.064;2024-03-23T04:33:32;8.83;;;7.17;;
18322;SDS011;9287;49.456;11.064;2024-03-23T04:35:58;7.97;;;7.17;;
18322;SDS011;9287;49.456;11.064;2024-03-23T04:38:24;8.50;;;7.20;;
18322;SDS011;9287;49.456;11.064;2024-03-23T04:40:56;7.10;;;6.30;;
18322;SDS011;9287;49.456;11.064;2024-03-23T04:43:24;8.47;;;6.63;;
18322;SDS011;9287;49.456;11.064;2024-03-23T04:45:52;8.43;;;6.53;;
18322;SDS011;9287;49.456;11.064;2024-03-23T04:48:19;9.37;;;7.07;;
18322;SDS011;9287;49.456;11.064;2024-03-23T04:50:46;11.30;;;7.07;;
18322;SDS011;9287;49.456;11.064;2024-03-23T04:53:13;7.43;;;6.53;;
18322;SDS011;9287;49.456;11.064;2024-03-23T04:55:41;6.53;;;5.77;;
18322;SDS011;9287;49.456;11.064;2024-03-23T04:58:09;7.83;;;6.13;;
18322;SDS011;9287;49.456;11.064;2024-03-23T05:00:35;6.67;;;6.00;;
18322;SDS011;9287;49.456;11.064;2024-03-23T05:03:02;8.27;;;6.20;;
18322;SDS011;9287;49.456;11.064;2024-03-23T05:05:29;6.60;;;5.97;;
18322;SDS011;9287;49.456;11.064;2024-03-23T05:07:56;6.83;;;5.67;;
18322;SDS011;9287;49.456;11.064;2024-03-23T05:10:22;7.43;;;6.43;;
18322;SDS011;9287;49.456;11.064;2024-03-23T05:12:49;8.30;;;6.50;;
18322;SDS011;9287;49.456;11.064;2024-03-23T05:15:16;7.50;;;6.17;;
18322;SDS011;9287;49.456;11.064;2024-03-23T05:17:43;5.90;;;4.90;;
18322;SDS011;9287;49.456;11.064;2024-03-23T05:20:09;6.43;;;5.67;;
18322;SDS011;9287;49.456;11.064;2024-03-23T05:22:37;6.30;;;5.70;;
18322;SDS011;9287;49.456;11.064;2024-03-23T05:25:03;6.23;;;5.60;;
18322;SDS011;9287;49.456;11.064;2024-03-23T05:27:31;9.37;;;6.67;;
18322;SDS011;9287;49.456;11.064;2024-03-23T05:29:57;11.53;;;7.20;;
18322;SDS011;9287;49.456;11.064;2024-03-23T05:32:25;13.03;;;7.80;;
18322;SDS011;9287;49.456;11.064;2024-03-23T05:34:53;11.77;;;8.17;;
18322;SDS011;9287;49.456;11.064;2024-03-23T05:37:21;10.67;;;7.03;;
18322;SDS011;9287;49.456;11.064;2024-03-23T05:39:48;10.77;;;6.80;;
18322;SDS011;9287;49.456;11.064;2024-03-23T05:42:16;9.83;;;6.90;;
18322;SDS011;9287;49.456;11.064;2024-03-23T05:44:42;11.80;;;7.50;;
18322;SDS011;9287;49.456;11.064;2024-03-23T05:47:10;10.80;;;6.87;;
18322;SDS011;9287;49.456;11.064;2024-03-23T05:49:39;10.03;;;7.13;;
18322;SDS011;9287;49.456;11.064;2024-03-23T05:52:07;12.30;;;7.50;;
18322;SDS011;9287;49.456;11.064;2024-03-23T05:54:33;12.67;;;7.50;;
18322;SDS011;9287;49.456;11.064;2024-03-23T05:56:59;8.47;;;5.77;;
18322;SDS011;9287;49.456;11.064;2024-03-23T05:59:25;9.77;;;5.90;;
18322;SDS011;9287;49.456;11.064;2024-03-23T06:01:53;8.30;;;4.93;;
18322;SDS011;9287;49.456;11.064;2024-03-23T06:04:19;6.77;;;4.43;;
18322;SDS011;9287;49.456;11.064;2024-03-23T06:06:48;4.97;;;3.47;;
18322;SDS011;9287;49.456;11.064;2024-03-23T06:09:13;4.10;;;3.20;;
18322;SDS011;9287;49.456;11.064;2024-03-23T06:11:40;4.43;;;3.50;;
18322;SDS011;9287;49.456;11.064;2024-03-23T06:14:06;5.27;;;3.97;;
18322;SDS011;9287;49.456;11.064;2024-03-23T06:16:33;6.13;;;4.23;;
18322;SDS011;9287;49.456;11.064;2024-03-23T06:18:59;6.77;;;4.30;;
18322;SDS011;9287;49.456;11.064;2024-03-23T06:21:29;5.93;;;5.03;;
18322;SDS011;9287;49.456;11.064;2024-03-23T06:23:56;5.30;;;4.80;;
18322;SDS011;9287;49.456;11.064;2024-03-23T06:26:23;5.73;;;5.03;;
18322;SDS011;9287;49.456;11.064;2024-03-23T06:28:49;6.43;;;5.83;;
18322;SDS011;9287;49.456;11.064;2024-03-23T06:31:15;6.30;;;5.70;;
18322;SDS011;9287;49.456;11.064;2024-03-23T06:33:41;6.83;;;6.07;;
18322;SDS011;9287;49.456;11.064;2024-03-23T06:36:09;8.70;;;6.67;;
18322;SDS011;9287;49.456;11.064;2024-03-23T06:38:35;8.37;;;7.40;;
18322;SDS011;9287;49.456;11.064;2024-03-23T06:41:04;9.13;;;6.70;;
18322;SDS011;9287;49.456;11.064;2024-03-23T06:43:31;13.60;;;7.77;;
18322;SDS011;9287;49.456;11.064;2024-03-23T06:45:58;9.77;;;8.30;;
18322;SDS011;9287;49.456;11.064;2024-03-23T06:48:24;9.90;;;7.80;;
18322;SDS011;9287;49.456;11.064;2024-03-23T06:50:55;11.83;;;8.80;;
18322;SDS011;9287;49.456;11.064;2024-03-23T06:53:21;8.77;;;7.87;;
18322;SDS011;9287;49.456;11.064;2024-03-23T06:55:49;9.83;;;8.10;;
18322;SDS011;9287;49.456;11.064;2024-03-23T06:58:17;10.97;;;7.47;;
18322;SDS011;9287;49.456;11.064;2024-03-23T07:00:45;11.00;;;8.33;;
18322;SDS011;9287;49.456;11.064;2024-03-23T07:03:13;10.87;;;8.30;;
18322;SDS011;9287;49.456;11.064;2024-03-23T07:05:40;9.60;;;7.67;;
18322;SDS011;9287;49.456;11.064;2024-03-23T07:08:06;10.37;;;7.90;;
18322;SDS011;9287;49.456;11.064;2024-03-23T07:10:33;8.23;;;7.00;;
18322;SDS011;9287;49.456;11.064;2024-03-23T07:12:59;8.30;;;6.80;;
18322;SDS011;9287;49.456;11.064;2024-03-23T07:15:28;8.00;;;6.63;;
18322;SDS011;9287;49.456;11.064;2024-03-23T07:17:53;8.43;;;6.50;;
18322;SDS011;9287;49.456;11.064;2024-03-23T07:20:20;7.63;;;6.37;;
18322;SDS011;9287;49.456;11.064;2024-03-23T07:22:46;8.70;;;6.23;;
18322;SDS011;9287;49.456;11.064;2024-03-23T07:25:13;7.50;;;5.73;;
18322;SDS011;9287;49.456;11.064;2024-03-23T07:27:39;6.67;;;5.37;;
18322;SDS011;9287;49.456;11.064;2024-03-23T07:30:07;6.33;;;5.23;;
18322;SDS011;9287;49.456;11.064;2024-03-23T07:32:35;7.80;;;5.07;;
18322;SDS011;9287;49.456;11.064;2024-03-23T07:35:02;6.37;;;5.17;;
18322;SDS011;9287;49.456;11.064;2024-03-23T07:37:29;8.43;;;5.20;;
18322;SDS011;9287;49.456;11.064;2024-03-23T07:39:56;5.87;;;4.77;;
18322;SDS011;9287;49.456;11.064;2024-03-23T07:42:22;6.87;;;5.00;;
18322;SDS011;9287;49.456;11.064;2024-03-23T07:44:51;5.77;;;5.17;;
18322;SDS011;9287;49.456;11.064;2024-03-23T07:47:19;7.60;;;5.77;;
18322;SDS011;9287;49.456;11.064;2024-03-23T07:49:47;6.20;;;4.90;;
18322;SDS011;9287;49.456;11.064;2024-03-23T07:52:13;7.00;;;5.97;;
18322;SDS011;9287;49.456;11.064;2024-03-23T07:54:40;6.63;;;5.93;;
18322;SDS011;9287;49.456;11.064;2024-03-23T07:57:06;11.03;;;5.70;;
18322;SDS011;9287;49.456;11.064;2024-03-23T07:59:32;6.17;;;5.57;;
18322;SDS011;9287;49.456;11.064;2024-03-23T08:01:59;9.03;;;6.37;;
18322;SDS011;9287;49.456;11.064;2024-03-23T08:04:26;5.57;;;4.97;;
18322;SDS011;9287;49.456;11.064;2024-03-23T08:06:54;5.83;;;4.77;;
18322;SDS011;9287;49.456;11.064;2024-03-23T08:09:21;8.87;;;5.70;;
18322;SDS011;9287;49.456;11.064;2024-03-23T08:11:48;7.90;;;4.83;;
18322;SDS011;9287;49.456;11.064;2024-03-23T08:14:14;7.27;;;5.20;;
18322;SDS011;9287;49.456;11.064;2024-03-23T08:16:40;6.63;;;5.30;;
18322;SDS011;9287;49.456;11.064;2024-03-23T08:19:13;6.73;;;5.30;;
18322;SDS011;9287;49.456;11.064;2024-03-23T08:21:39;5.73;;;4.43;;
18322;SDS011;9287;49.456;11.064;2024-03-23T08:24:08;6.73;;;4.43;;
18322;SDS011;9287;49.456;11.064;2024-03-23T08:26:33;6.37;;;3.90;;
18322;SDS011;9287;49.456;11.064;2024-03-23T08:29:03;4.47;;;3.23;;
18322;SDS011;9287;49.456;11.064;2024-03-23T08:31:29;3.20;;;2.90;;
18322;SDS011;9287;49.456;11.064;2024-03-23T08:33:56;2.20;;;2.00;;
18322;SDS011;9287;49.456;11.064;2024-03-23T08:36:22;1.97;;;1.77;;
18322;SDS011;9287;49.456;11.064;2024-03-23T08:38:49;2.03;;;1.30;;
18322;SDS011;9287;49.456;11.064;2024-03-23T08:41:32;1.60;;;1.20;;
18322;SDS011;9287;49.456;11.064;2024-03-23T08:44:11;0.93;;;0.90;;
18322;SDS011;9287;49.456;11.064;2024-03-23T08:46:37;0.90;;;0.90;;
18322;SDS011;9287;49.456;11.064;2024-03-23T08:49:04;1.10;;;1.00;;
18322;SDS011;9287;49.456;11.064;2024-03-23T08:51:29;0.80;;;0.80;;
18322;SDS011;9287;49.456;11.064;2024-03-23T08:53:56;4.87;;;0.90;;
18322;SDS011;9287;49.456;11.064;2024-03-23T08:56:23;1.03;;;0.90;;
18322;SDS011;9287;49.456;11.064;2024-03-23T08:58:51;1.37;;;0.90;;
18322;SDS011;9287;49.456;11.064;2024-03-23T09:01:16;1.37;;;0.80;;
18322;SDS011;9287;49.456;11.064;2024-03-23T09:03:43;0.70;;;0.70;;
18322;SDS011;9287;49.456;11.064;2024-03-23T09:06:10;0.70;;;0.70;;
18322;SDS011;9287;49.456;11.064;2024-03-23T09:08:39;0.70;;;0.70;;
18322;SDS011;9287;49.456;11.064;2024-03-23T09:11:06;0.50;;;0.50;;
18322;SDS011;9287;49.456;11.064;2024-03-23T09:13:35;0.87;;;0.70;;
18322;SDS011;9287;49.456;11.064;2024-03-23T09:16:02;0.60;;;0.50;;
18322;SDS011;9287;49.456;11.064;2024-03-23T09:18:31;0.60;;;0.50;;
18322;SDS011;9287;49.456;11.064;2024-03-23T09:20:57;0.40;;;0.40;;
18322;SDS011;9287;49.456;11.064;2024-03-23T09:30:46;0.43;;;0.40;;
18322;SDS011;9287;49.456;11.064;2024-03-23T09:33:13;0.40;;;0.40;;
18322;SDS011;9287;49.456;11.064;2024-03-23T09:35:40;0.53;;;0.40;;
18322;SDS011;9287;49.456;11.064;2024-03-23T09:38:08;0.30;;;0.30;;
18322;SDS011;9287;49.456;11.064;2024-03-23T09:40:34;0.30;;;0.30;;
18322;SDS011;9287;49.456;11.064;2024-03-23T09:43:01;0.97;;;0.27;;
18322;SDS011;9287;49.456;11.064;2024-03-23T09:45:27;0.10;;;0.10;;
18322;SDS011;9287;49.456;11.064;2024-03-23T09:47:56;0.70;;;0.20;;
18322;SDS011;9287;49.456;11.064;2024-03-23T09:50:22;0.10;;;0.10;;
18322;SDS011;9287;49.456;11.064;2024-03-23T09:52:49;1.53;;;0.63;;
18322;SDS011;9287;49.456;11.064;2024-03-23T09:55:15;0.60;;;0.50;;
18322;SDS011;9287;49.456;11.064;2024-03-23T09:57:43;0.20;;;0.20;;
18322;SDS011;9287;49.456;11.064;2024-03-23T10:00:09;0.30;;;0.30;;
18322;SDS011;9287;49.456;11.064;2024-03-23T10:02:37;0.13;;;0.13;;
18322;SDS011;9287;49.456;11.064;2024-03-23T10:05:05;0.30;;;0.30;;
18322;SDS011;9287;49.456;11.064;2024-03-23T10:07:47;0.20;;;0.20;;
18322;SDS011;9287;49.456;11.064;2024-03-23T10:10:13;0.97;;;0.27;;
18322;SDS011;9287;49.456;11.064;2024-03-23T10:12:43;2.50;;;0.80;;
18322;SDS011;9287;49.456;11.064;2024-03-23T10:15:13;1.90;;;0.70;;
18322;SDS011;9287;49.456;11.064;2024-03-23T10:17:44;0.57;;;0.40;;
18322;SDS011;9287;49.456;11.064;2024-03-23T10:20:11;0.60;;;0.40;;
18322;SDS011;9287;49.456;11.064;2024-03-23T10:22:38;0.50;;;0.50;;
18322;SDS011;9287;49.456;11.064;2024-03-23T10:25:08;0.47;;;0.47;;
18322;SDS011;9287;49.456;11.064;2024-03-23T10:27:35;1.60;;;0.40;;
18322;SDS011;9287;49.456;11.064;2024-03-23T10:30:09;2.30;;;0.67;;
18322;SDS011;9287;49.456;11.064;2024-03-23T10:32:37;0.73;;;0.40;;
18322;SDS011;9287;49.456;11.064;2024-03-23T10:35:15;1.93;;;0.60;;
18322;SDS011;9287;49.456;11.064;2024-03-23T10:37:44;0.93;;;0.53;;
18322;SDS011;9287;49.456;11.064;2024-03-23T10:40:12;0.50;;;0.50;;
18322;SDS011;9287;49.456;11.064;2024-03-23T10:42:38;0.60;;;0.50;;
18322;SDS011;9287;49.456;11.064;2024-03-23T10:45:06;0.47;;;0.47;;
18322;SDS011;9287;49.456;11.064;2024-03-23T10:47:34;1.37;;;0.50;;
18322;SDS011;9287;49.456;11.064;2024-03-23T10:50:02;1.07;;;0.70;;
18322;SDS011;9287;49.456;11.064;2024-03-23T10:52:32;1.27;;;0.60;;
18322;SDS011;9287;49.456;11.064;2024-03-23T10:54:59;2.30;;;0.60;;
18322;SDS011;9287;49.456;11.064;2024-03-23T10:57:29;2.00;;;0.70;;
18322;SDS011;9287;49.456;11.064;2024-03-23T11:00:02;2.17;;;0.70;;
18322;SDS011;9287;49.456;11.064;2024-03-23T11:02:28;0.73;;;0.53;;
18322;SDS011;9287;49.456;11.064;2024-03-23T11:04:55;0.70;;;0.67;;
18322;SDS011;9287;49.456;11.064;2024-03-23T11:07:32;1.00;;;0.60;;
18322;SDS011;9287;49.456;11.064;2024-03-23T11:09:59;1.47;;;0.80;;
18322;SDS011;9287;49.456;11.064;2024-03-23T11:12:29;1.10;;;0.70;;
18322;SDS011;9287;49.456;11.064;2024-03-23T11:15:02;1.63;;;0.70;;
18322;SDS011;9287;49.456;11.064;2024-03-23T11:17:29;2.20;;;0.70;;
18322;SDS011;9287;49.456;11.064;2024-03-23T11:19:57;1.37;;;0.90;;
18322;SDS011;9287;49.456;11.064;2024-03-23T11:25:14;1.30;;;0.83;;
18322;SDS011;9287;49.456;11.064;2024-03-23T11:27:44;2.60;;;0.80;;
18322;SDS011;9287;49.456;11.064;2024-03-23T11:30:12;1.87;;;1.00;;
18322;SDS011;9287;49.456;11.064;2024-03-23T11:32:39;3.80;;;1.23;;
18322;SDS011;9287;49.456;11.064;2024-03-23T11:35:06;2.23;;;1.23;;
18322;SDS011;9287;49.456;11.064;2024-03-23T11:37:32;2.73;;;1.10;;
18322;SDS011;9287;49.456;11.064;2024-03-23T11:40:01;2.73;;;1.00;;
18322;SDS011;9287;49.456;11.064;2024-03-23T11:42:41;2.73;;;1.17;;
18322;SDS011;9287;49.456;11.064;2024-03-23T11:45:08;1.87;;;1.20;;
18322;SDS011;9287;49.456;11.064;2024-03-23T11:47:35;1.33;;;0.97;;
18322;SDS011;9287;49.456;11.064;2024-03-23T11:50:02;3.00;;;1.10;;
18322;SDS011;9287;49.456;11.064;2024-03-23T11:52:28;4.50;;;0.90;;
18322;SDS011;9287;49.456;11.064;2024-03-23T11:55:04;1.57;;;0.90;;
18322;SDS011;9287;49.456;11.064;2024-03-23T11:57:33;2.53;;;1.00;;
18322;SDS011;9287;49.456;11.064;2024-03-23T11:59:59;2.47;;;1.00;;
18322;SDS011;9287;49.456;11.064;2024-03-23T12:02:26;2.17;;;0.87;;
18322;SDS011;9287;49.456;11.064;2024-03-23T12:04:51;1.27;;;0.80;;
18322;SDS011;9287;49.456;11.064;2024-03-23T12:07:20;1.33;;;0.80;;
18322;SDS011;9287;49.456;11.064;2024-03-23T12:09:47;1.67;;;0.80;;
18322;SDS011;9287;49.456;11.064;2024-03-23T12:12:29;1.77;;;0.60;;
18322;SDS011;9287;49.456;11.064;2024-03-23T12:15:02;1.27;;;0.80;;
18322;SDS011;9287;49.456;11.064;2024-03-23T12:17:31;2.60;;;0.83;;
18322;SDS011;9287;49.456;11.064;2024-03-23T12:19:57;1.23;;;0.80;;
18322;SDS011;9287;49.456;11.064;2024-03-23T12:22:24;2.03;;;0.80;;
18322;SDS011;9287;49.456;11.064;2024-03-23T12:24:50;1.45;;;0.80;;
18322;SDS011;9287;49.456;11.064;2024-03-23T12:27:17;1.60;;;0.80;;
18322;SDS011;9287;49.456;11.064;2024-03-23T12:29:44;2.17;;;0.80;;
18322;SDS011;9287;49.456;11.064;2024-03-23T12:32:12;2.73;;;0.80;;
18322;SDS011;9287;49.456;11.064;2024-03-23T12:34:38;1.77;;;0.80;;
18322;SDS011;9287;49.456;11.064;2024-03-23T12:37:05;1.65;;;0.90;;
18322;SDS011;9287;49.456;11.064;2024-03-23T12:39:31;1.95;;;0.90;;
18322;SDS011;9287;49.456;11.064;2024-03-23T12:41:58;1.33;;;0.90;;
18322;SDS011;9287;49.456;11.064;2024-03-23T12:44:24;2.77;;;1.00;;
18322;SDS011;9287;49.456;11.064;2024-03-23T12:46:52;2.90;;;1.10;;
18322;SDS011;9287;49.456;11.064;2024-03-23T12:49:18;2.33;;;0.87;;
18322;SDS011;9287;49.456;11.064;2024-03-23T12:51:46;2.57;;;0.90;;
18322;SDS011;9287;49.456;11.064;2024-03-23T12:54:19;1.77;;;1.00;;
18322;SDS011;9287;49.456;11.064;2024-03-23T12:56:45;2.30;;;1.20;;
18322;SDS011;9287;49.456;11.064;2024-03-23T12:59:11;2.57;;;1.10;;
18322;SDS011;9287;49.456;11.064;2024-03-23T13:01:38;2.60;;;1.07;;
18322;SDS011;9287;49.456;11.064;2024-03-23T13:04:06;1.97;;;0.90;;
18322;SDS011;9287;49.456;11.064;2024-03-23T13:06:33;4.10;;;1.33;;
18322;SDS011;9287;49.456;11.064;2024-03-23T13:09:00;4.37;;;1.40;;
18322;SDS011;9287;49.456;11.064;2024-03-23T13:11:27;4.10;;;1.17;;
18322;SDS011;9287;49.456;11.064;2024-03-23T13:13:53;2.53;;;1.10;;
18322;SDS011;9287;49.456;11.064;2024-03-23T13:16:20;2.93;;;1.13;;
18322;SDS011;9287;49.456;11.064;2024-03-23T13:18:46;3.97;;;0.90;;
18322;SDS011;9287;49.456;11.064;2024-03-23T13:21:14;2.57;;;1.40;;
18322;SDS011;9287;49.456;11.064;2024-03-23T13:23:40;1.93;;;1.10;;
18322;SDS011;9287;49.456;11.064;2024-03-23T13:26:07;3.57;;;1.70;;
18322;SDS011;9287;49.456;11.064;2024-03-23T13:28:33;4.50;;;1.40;;
18322;SDS011;9287;49.456;11.064;2024-03-23T13:31:01;5.03;;;1.20;;
18322;SDS011;9287;49.456;11.064;2024-03-23T13:33:29;3.03;;;1.30;;
18322;SDS011;9287;49.456;11.064;2024-03-23T13:35:57;1.90;;;1.00;;
18322;SDS011;9287;49.456;11.064;2024-03-23T13:38:25;1.90;;;1.03;;
18322;SDS011;9287;49.456;11.064;2024-03-23T13:40:52;4.43;;;1.10;;
18322;SDS011;9287;49.456;11.064;2024-03-23T13:43:19;4.67;;;1.20;;
18322;SDS011;9287;49.456;11.064;2024-03-23T13:45:46;2.87;;;1.00;;
18322;SDS011;9287;49.456;11.064;2024-03-23T13:48:12;1.33;;;0.90;;
18322;SDS011;9287;49.456;11.064;2024-03-23T13:50:39;1.90;;;0.90;;
18322;SDS011;9287;49.456;11.064;2024-03-23T13:53:05;4.47;;;0.90;;
18322;SDS011;9287;49.456;11.064;2024-03-23T13:55:34;2.57;;;0.90;;
18322;SDS011;9287;49.456;11.064;2024-03-23T13:58:01;1.23;;;0.80;;
18322;SDS011;9287;49.456;11.064;2024-03-23T14:00:27;3.83;;;1.07;;
18322;SDS011;9287;49.456;11.064;2024-03-23T14:02:53;2.93;;;1.10;;
18322;SDS011;9287;49.456;11.064;2024-03-23T14:05:20;2.93;;;0.93;;
18322;SDS011;9287;49.456;11.064;2024-03-23T14:07:46;4.23;;;1.13;;
18322;SDS011;9287;49.456;11.064;2024-03-23T14:10:13;2.17;;;1.10;;
18322;SDS011;9287;49.456;11.064;2024-03-23T14:12:40;2.33;;;0.90;;
18322;SDS011;9287;49.456;11.064;2024-03-23T14:15:07;3.10;;;1.00;;
18322;SDS011;9287;49.456;11.064;2024-03-23T14:17:34;2.47;;;1.10;;
18322;SDS011;9287;49.456;11.064;2024-03-23T14:20:01;3.37;;;0.83;;
18322;SDS011;9287;49.456;11.064;2024-03-23T14:22:30;2.50;;;0.80;;
18322;SDS011;9287;49.456;11.064;2024-03-23T14:24:57;1.97;;;0.97;;
18322;SDS011;9287;49.456;11.064;2024-03-23T14:27:24;2.47;;;0.87;;
18322;SDS011;9287;49.456;11.064;2024-03-23T14:29:52;3.07;;;1.10;;
18322;SDS011;9287;49.456;11.064;2024-03-23T14:32:17;4.37;;;1.27;;
18322;SDS011;9287;49.456;11.064;2024-03-23T14:34:44;4.30;;;1.00;;
18322;SDS011;9287;49.456;11.064;2024-03-23T14:37:10;3.37;;;1.00;;
18322;SDS011;9287;49.456;11.064;2024-03-23T14:39:37;1.73;;;0.73;;
18322;SDS011;9287;49.456;11.064;2024-03-23T14:42:04;1.77;;;0.80;;
18322;SDS011;9287;49.456;11.064;2024-03-23T14:44:31;2.43;;;0.90;;
18322;SDS011;9287;49.456;11.064;2024-03-23T14:46:59;2.10;;;0.83;;
18322;SDS011;9287;49.456;11.064;2024-03-23T14:49:25;2.87;;;1.20;;
18322;SDS011;9287;49.456;11.064;2024-03-23T14:51:51;2.60;;;0.90;;
18322;SDS011;9287;49.456;11.064;2024-03-23T14:54:18;3.77;;;1.10;;
18322;SDS011;9287;49.456;11.064;2024-03-23T14:56:44;1.17;;;0.70;;
18322;SDS011;9287;49.456;11.064;2024-03-23T14:59:12;1.53;;;1.10;;
18322;SDS011;9287;49.456;11.064;2024-03-23T15:01:38;2.20;;;1.20;;
18322;SDS011;9287;49.456;11.064;2024-03-23T15:04:06;2.83;;;0.90;;
18322;SDS011;9287;49.456;11.064;2024-03-23T15:06:33;5.30;;;1.23;;
18322;SDS011;9287;49.456;11.064;2024-03-23T15:09:00;2.60;;;1.27;;
18322;SDS011;9287;49.456;11.064;2024-03-23T15:11:26;3.13;;;1.10;;
18322;SDS011;9287;49.456;11.064;2024-03-23T15:13:53;2.93;;;1.60;;
18322;SDS011;9287;49.456;11.064;2024-03-23T15:16:18;5.17;;;1.60;;
18322;SDS011;9287;49.456;11.064;2024-03-23T15:18:46;6.23;;;1.93;;
18322;SDS011;9287;49.456;11.064;2024-03-23T15:21:13;3.73;;;1.87;;
18322;SDS011;9287;49.456;11.064;2024-03-23T15:23:45;4.83;;;1.90;;
18322;SDS011;9287;49.456;11.064;2024-03-23T15:26:11;4.20;;;2.27;;
18322;SDS011;9287;49.456;11.064;2024-03-23T15:28:38;2.13;;;1.30;;
18322;SDS011;9287;49.456;11.064;2024-03-23T15:31:07;3.37;;;1.60;;
18322;SDS011;9287;49.456;11.064;2024-03-23T15:33:34;3.83;;;1.47;;
18322;SDS011;9287;49.456;11.064;2024-03-23T15:36:01;2.43;;;1.67;;
18322;SDS011;9287;49.456;11.064;2024-03-23T15:38:30;2.77;;;1.70;;
18322;SDS011;9287;49.456;11.064;2024-03-23T15:40:57;2.33;;;1.20;;
18322;SDS011;9287;49.456;11.064;2024-03-23T15:43:24;2.57;;;1.27;;
18322;SDS011;9287;49.456;11.064;2024-03-23T15:45:54;1.47;;;1.10;;
18322;SDS011;9287;49.456;11.064;2024-03-23T15:48:21;2.03;;;1.10;;
18322;SDS011;9287;49.456;11.064;2024-03-23T15:50:50;2.27;;;1.43;;
18322;SDS011;9287;49.456;11.064;2024-03-23T15:53:18;1.70;;;1.13;;